Time;durP1;ratioP1;P1;durP2;ratioP2;P2;SDS_P1;SDS_P2;PMS_P1;PMS_P2;Temp;Humidity;BMP_temperature;BMP_pressure;BME280_temperature;BME280_humidity;BME280_pressure;Samples;Min_cycle;Max_cycle;Signal;HPM_P1;HPM_P2
2024/01/22 00:01:45;;;;;;;8.10;6.57;;;3.50;99.90;;;;;;5004399;28;20471;-55
2024/01/22 00:04:12;;;;;;;7.57;5.10;;;3.40;99.90;;;;;;5004401;28;20997;-53
2024/01/22 00:06:40;;;;;;;8.67;5.63;;;3.40;99.90;;;;;;5012833;28;20538;-53
2024/01/22 00:09:07;;;;;;;5.63;5.20;;;3.40;99.90;;;;;;5016359;28;20505;-54
2024/01/22 00:11:33;;;;;;;7.83;5.37;;;3.40;99.90;;;;;;5016981;28;20500;-54
2024/01/22 00:14:01;;;;;;;5.97;5.07;;;3.40;99.90;;;;;;5000321;28;20502;-54
2024/01/22 00:16:27;;;;;;;7.90;6.17;;;3.30;99.90;;;;;;5015964;28;20454;-53
2024/01/22 00:18:54;;;;;;;6.83;5.50;;;3.20;99.90;;;;;;5010140;28;20543;-53
2024/01/22 00:21:20;;;;;;;6.40;5.80;;;3.10;99.90;;;;;;5020466;28;20991;-53
2024/01/22 00:23:48;;;;;;;7.87;6.03;;;3.10;99.90;;;;;;5005882;28;20470;-54
2024/01/22 00:26:15;;;;;;;5.53;5.03;;;3.10;99.90;;;;;;5008275;28;20495;-53
2024/01/22 00:28:42;;;;;;;7.40;5.87;;;3.00;99.90;;;;;;5012288;28;20444;-54
2024/01/22 00:31:08;;;;;;;6.33;5.03;;;3.00;99.90;;;;;;5019910;28;20448;-56
2024/01/22 00:33:35;;;;;;;6.63;5.80;;;3.00;99.90;;;;;;5033514;28;20423;-56
2024/01/22 00:36:03;;;;;;;6.23;4.93;;;3.00;99.90;;;;;;5029562;28;20471;-54
2024/01/22 00:38:29;;;;;;;7.03;5.20;;;2.90;99.90;;;;;;5026586;28;20507;-54
2024/01/22 00:40:57;;;;;;;6.10;5.53;;;3.00;99.90;;;;;;5027933;28;20472;-57
2024/01/22 00:43:24;;;;;;;8.80;5.77;;;3.00;99.90;;;;;;5023040;28;20460;-59
2024/01/22 00:45:51;;;;;;;5.97;5.47;;;3.00;99.90;;;;;;5012057;28;20495;-56
2024/01/22 00:48:17;;;;;;;10.83;6.30;;;3.10;99.90;;;;;;5011568;28;20445;-56
2024/01/22 00:50:44;;;;;;;6.80;5.60;;;3.10;99.90;;;;;;5003166;28;20479;-56
2024/01/22 00:53:10;;;;;;;5.37;4.87;;;3.00;99.90;;;;;;5015222;28;20869;-61
2024/01/22 00:55:37;;;;;;;6.20;5.60;;;3.00;99.90;;;;;;5004409;28;20465;-57
2024/01/22 00:58:05;;;;;;;7.13;5.20;;;3.00;99.90;;;;;;5008641;28;20439;-56
2024/01/22 01:00:32;;;;;;;5.63;5.10;;;3.00;99.90;;;;;;5009062;28;20487;-56
2024/01/22 01:02:59;;;;;;;7.13;5.17;;;3.00;99.90;;;;;;5002620;28;20509;-55
2024/01/22 01:05:25;;;;;;;5.63;5.13;;;3.00;99.90;;;;;;5011291;28;20531;-55
2024/01/22 01:07:52;;;;;;;5.90;5.30;;;3.10;99.90;;;;;;5001686;28;20507;-55
2024/01/22 01:10:18;;;;;;;6.07;5.27;;;3.10;99.90;;;;;;5008794;28;21244;-54
2024/01/22 01:12:45;;;;;;;6.63;5.47;;;3.10;99.90;;;;;;4998206;28;20451;-55
2024/01/22 01:15:13;;;;;;;9.00;5.57;;;3.10;99.90;;;;;;5004921;28;20488;-56
2024/01/22 01:17:40;;;;;;;7.30;5.20;;;3.10;99.90;;;;;;5006295;28;20455;-54
2024/01/22 01:20:07;;;;;;;8.10;5.30;;;3.10;99.90;;;;;;5016094;28;20511;-58
2024/01/22 01:22:33;;;;;;;6.07;5.03;;;3.10;99.90;;;;;;5015221;28;20448;-55
2024/01/22 01:25:00;;;;;;;6.23;5.03;;;3.20;99.90;;;;;;5034279;28;20972;-59
2024/01/22 01:27:27;;;;;;;8.50;5.43;;;3.10;99.90;;;;;;5018839;28;20459;-56
2024/01/22 01:29:54;;;;;;;7.53;5.40;;;3.20;99.90;;;;;;5028924;28;20460;-56
2024/01/22 01:32:21;;;;;;;5.47;4.97;;;3.20;99.90;;;;;;5015363;28;20448;-59
2024/01/22 01:34:48;;;;;;;8.07;5.70;;;3.10;99.90;;;;;;5003915;28;20447;-56
2024/01/22 01:37:15;;;;;;;6.07;4.97;;;3.00;99.90;;;;;;5001272;28;20501;-55
2024/01/22 01:39:41;;;;;;;6.23;5.63;;;3.00;99.90;;;;;;5011896;28;20488;-54
2024/01/22 01:42:08;;;;;;;8.80;5.00;;;3.00;99.90;;;;;;5015589;28;20503;-55
2024/01/22 01:44:49;;;;;;;9.13;5.73;;;3.00;99.90;;;;;;5020651;28;20447;-55
2024/01/22 01:47:16;;;;;;;5.47;4.97;;;3.10;99.90;;;;;;5005623;28;20764;-55
2024/01/22 01:49:45;;;;;;;4.70;4.37;;;3.00;99.90;;;;;;5013672;28;20454;-57
2024/01/22 01:52:13;;;;;;;6.60;4.63;;;3.10;99.90;;;;;;5012435;28;20961;-54
2024/01/22 01:54:41;;;;;;;6.13;4.80;;;3.10;99.90;;;;;;5023321;28;20497;-55
2024/01/22 01:57:08;;;;;;;8.67;4.90;;;3.20;99.90;;;;;;5013188;28;20509;-55
2024/01/22 01:59:36;;;;;;;4.93;4.40;;;3.20;99.90;;;;;;5024062;28;20487;-55
2024/01/22 02:02:02;;;;;;;7.13;4.80;;;3.20;99.90;;;;;;5020638;28;20497;-56
2024/01/22 02:04:30;;;;;;;6.23;5.33;;;3.20;99.90;;;;;;5011421;28;20464;-57
2024/01/22 02:06:58;;;;;;;7.80;4.63;;;3.20;99.90;;;;;;5015633;28;20468;-55
2024/01/22 02:09:47;;;;;;;10.50;4.90;;;3.30;99.90;;;;;;5028682;28;20466;-54
2024/01/22 02:12:13;;;;;;;7.20;4.83;;;3.40;99.90;;;;;;5011085;28;20455;-56
2024/01/22 02:14:40;;;;;;;8.33;4.83;;;3.40;99.90;;;;;;5003925;28;20448;-55
2024/01/22 02:17:07;;;;;;;4.90;4.40;;;3.50;99.90;;;;;;5013775;28;20453;-55
2024/01/22 02:19:34;;;;;;;7.50;4.07;;;3.50;99.90;;;;;;5009921;28;20487;-56
2024/01/22 02:22:01;;;;;;;7.40;4.57;;;3.60;99.90;;;;;;5011451;28;20444;-56
2024/01/22 02:24:29;;;;;;;5.10;4.60;;;3.60;99.90;;;;;;5016696;28;20532;-56
2024/01/22 02:26:56;;;;;;;8.87;4.70;;;3.60;99.90;;;;;;5008129;28;20464;-56
2024/01/22 02:29:22;;;;;;;5.07;4.10;;;3.70;99.90;;;;;;5012469;28;20467;-56
2024/01/22 02:31:49;;;;;;;5.80;4.03;;;3.70;99.90;;;;;;5019848;28;20447;-62
2024/01/22 02:34:16;;;;;;;4.93;4.53;;;3.80;99.90;;;;;;5025698;28;20457;-57
2024/01/22 02:36:45;;;;;;;7.03;4.73;;;3.80;99.90;;;;;;5030186;28;20436;-57
2024/01/22 02:39:11;;;;;;;5.43;4.43;;;3.70;99.90;;;;;;5026611;28;20551;-57
2024/01/22 02:41:39;;;;;;;8.23;4.20;;;3.80;99.90;;;;;;5029615;28;20490;-57
2024/01/22 02:44:06;;;;;;;12.53;4.63;;;3.80;99.90;;;;;;5016168;28;20804;-55
2024/01/22 02:46:33;;;;;;;4.23;3.90;;;3.80;99.90;;;;;;5008858;28;20447;-55
2024/01/22 02:48:59;;;;;;;4.73;4.10;;;3.80;99.90;;;;;;5011675;28;20444;-56
2024/01/22 02:51:26;;;;;;;7.17;4.20;;;3.80;99.90;;;;;;5005183;28;20445;-56
2024/01/22 02:53:53;;;;;;;4.23;3.90;;;3.90;99.90;;;;;;5011174;28;20499;-55
2024/01/22 02:56:20;;;;;;;6.57;5.30;;;3.80;99.90;;;;;;5016484;28;20440;-55
2024/01/22 02:58:48;;;;;;;4.10;3.67;;;3.80;99.90;;;;;;5015575;28;20509;-55
2024/01/22 03:01:15;;;;;;;5.33;4.83;;;3.80;99.90;;;;;;5004986;28;20491;-56
2024/01/22 03:03:42;;;;;;;5.93;4.53;;;3.90;99.90;;;;;;5010845;28;20451;-55
2024/01/22 03:06:10;;;;;;;4.90;4.50;;;3.90;99.90;;;;;;5016094;28;20451;-56
2024/01/22 03:08:36;;;;;;;7.40;4.60;;;3.90;99.90;;;;;;5017703;28;20427;-55
2024/01/22 03:11:04;;;;;;;5.50;4.33;;;3.90;99.90;;;;;;5012467;28;20557;-56
2024/01/22 03:13:31;;;;;;;5.90;3.80;;;3.90;99.90;;;;;;5004282;28;20454;-56
2024/01/22 03:15:58;;;;;;;8.70;4.37;;;3.90;99.90;;;;;;5000284;28;20573;-56
2024/01/22 03:18:25;;;;;;;7.10;4.03;;;4.00;99.90;;;;;;5019977;28;20501;-56
2024/01/22 03:20:52;;;;;;;4.37;3.70;;;4.00;99.90;;;;;;5011470;28;20491;-55
2024/01/22 03:23:19;;;;;;;7.37;4.50;;;4.00;99.90;;;;;;5017094;28;20467;-54
2024/01/22 03:25:45;;;;;;;6.00;3.93;;;4.00;99.90;;;;;;5006895;28;20933;-55
2024/01/22 03:28:12;;;;;;;6.90;3.53;;;4.10;99.90;;;;;;5010295;28;20447;-56
2024/01/22 03:30:38;;;;;;;4.13;3.83;;;4.10;99.90;;;;;;5004646;28;20517;-56
2024/01/22 03:33:07;;;;;;;6.13;4.47;;;4.10;99.90;;;;;;4997245;28;20452;-55
2024/01/22 03:35:33;;;;;;;5.23;3.90;;;4.10;99.90;;;;;;5015505;28;20814;-56
2024/01/22 03:38:00;;;;;;;6.67;3.47;;;4.20;99.90;;;;;;5010581;28;20499;-55
2024/01/22 03:40:26;;;;;;;6.33;4.73;;;4.20;99.90;;;;;;5005898;28;20492;-56
2024/01/22 03:42:53;;;;;;;5.70;4.10;;;4.30;99.90;;;;;;5008776;28;20450;-56
2024/01/22 03:45:20;;;;;;;6.07;4.23;;;4.40;99.90;;;;;;5004897;28;20453;-55
2024/01/22 03:47:46;;;;;;;4.10;3.60;;;4.50;99.90;;;;;;5012521;28;20462;-55
2024/01/22 03:50:14;;;;;;;3.87;3.53;;;4.50;95.70;;;;;;5008310;28;20484;-54
2024/01/22 03:52:41;;;;;;;5.73;3.97;;;4.40;69.70;;;;;;5015688;28;20455;-56
2024/01/22 03:55:09;;;;;;;6.27;4.20;;;4.20;47.50;;;;;;5005924;28;20498;-56
2024/01/22 03:57:36;;;;;;;4.73;3.97;;;4.00;96.40;;;;;;5005329;28;20448;-56
2024/01/22 04:00:03;;;;;;;5.20;4.13;;;3.90;99.90;;;;;;5018762;28;20500;-55
2024/01/22 04:02:33;;;;;;;5.20;4.10;;;3.80;99.90;;;;;;4995836;28;20463;-55
2024/01/22 04:04:59;;;;;;;5.27;4.13;;;3.80;99.90;;;;;;4997865;28;20511;-55
2024/01/22 04:07:27;;;;;;;3.77;3.47;;;3.70;99.90;;;;;;4995619;28;20445;-55
2024/01/22 04:09:54;;;;;;;4.57;4.13;;;3.70;99.90;;;;;;4994520;28;20463;-58
2024/01/22 04:12:21;;;;;;;4.50;3.97;;;3.80;99.90;;;;;;5007925;28;20494;-56
2024/01/22 04:14:47;;;;;;;5.87;3.77;;;3.70;99.90;;;;;;5011965;28;20444;-57
2024/01/22 04:17:14;;;;;;;6.53;4.30;;;3.70;99.90;;;;;;5011036;28;20496;-56
2024/01/22 04:19:42;;;;;;;5.47;3.50;;;3.80;99.90;;;;;;5012970;28;20468;-56
2024/01/22 04:22:09;;;;;;;4.23;3.77;;;3.80;99.90;;;;;;5015336;28;20462;-61
2024/01/22 04:24:37;;;;;;;4.37;3.97;;;3.80;99.90;;;;;;5001940;28;20471;-67
2024/01/22 04:27:04;;;;;;;3.87;3.47;;;3.80;99.90;;;;;;4999702;28;20511;-57
2024/01/22 04:29:30;;;;;;;3.70;3.40;;;3.80;99.90;;;;;;4991877;28;20500;-55
2024/01/22 04:31:57;;;;;;;5.27;3.77;;;3.80;99.90;;;;;;4986511;28;20869;-57
2024/01/22 04:34:23;;;;;;;4.60;3.20;;;3.80;99.90;;;;;;4992682;28;20480;-55
2024/01/22 04:36:50;;;;;;;4.23;3.83;;;3.80;99.90;;;;;;4988667;28;20449;-56
2024/01/22 04:39:16;;;;;;;4.40;4.00;;;3.80;99.90;;;;;;4994387;28;20512;-56
2024/01/22 04:41:44;;;;;;;6.70;4.17;;;3.80;99.90;;;;;;4999578;28;20483;-55
2024/01/22 04:44:11;;;;;;;4.67;3.90;;;3.90;99.90;;;;;;5003286;28;20450;-55
2024/01/22 04:46:37;;;;;;;4.33;4.03;;;4.00;99.90;;;;;;4988224;28;20515;-55
2024/01/22 04:49:04;;;;;;;3.77;3.47;;;4.00;99.90;;;;;;5002096;28;20437;-55
2024/01/22 04:51:31;;;;;;;3.90;3.30;;;4.00;99.90;;;;;;5005862;28;20523;-56
2024/01/22 04:53:57;;;;;;;5.47;4.30;;;4.00;99.90;;;;;;4986521;28;20441;-55
2024/01/22 04:56:24;;;;;;;3.90;3.37;;;4.00;99.90;;;;;;4990459;28;20465;-55
2024/01/22 04:58:52;;;;;;;6.03;3.77;;;4.10;99.90;;;;;;4988680;28;20525;-56
2024/01/22 05:01:19;;;;;;;4.17;3.20;;;4.10;99.90;;;;;;5012064;28;20488;-56
2024/01/22 05:03:45;;;;;;;4.60;3.47;;;4.10;99.90;;;;;;5018474;28;20505;-56
2024/01/22 05:06:12;;;;;;;7.07;4.10;;;4.10;1.40;;;;;;5001060;28;20899;-55
2024/01/22 05:08:38;;;;;;;5.13;3.40;;;4.10;99.90;;;;;;5005541;28;20461;-55
2024/01/22 05:11:05;;;;;;;5.50;4.10;;;4.20;99.90;;;;;;5017931;28;20479;-55
2024/01/22 05:13:32;;;;;;;4.00;3.70;;;4.20;99.90;;;;;;5017443;28;20930;-55
2024/01/22 05:16:00;;;;;;;3.70;3.30;;;4.20;99.90;;;;;;5007606;28;20591;-55
2024/01/22 05:18:26;;;;;;;7.67;3.80;;;4.20;99.90;;;;;;5007803;28;20448;-54
2024/01/22 05:20:53;;;;;;;5.60;3.00;;;4.30;99.90;;;;;;5008426;28;20487;-57
2024/01/22 05:23:19;;;;;;;4.67;3.10;;;4.30;99.90;;;;;;5011357;28;20467;-55
2024/01/22 05:25:46;;;;;;;3.60;3.30;;;4.40;99.90;;;;;;5024182;28;20482;-55
2024/01/22 05:28:13;;;;;;;4.83;3.20;;;4.60;99.90;;;;;;5025260;28;20520;-55
2024/01/22 05:30:39;;;;;;;3.40;3.10;;;4.50;99.90;;;;;;5024405;28;20461;-55
2024/01/22 05:33:07;;;;;;;4.80;3.03;;;4.70;99.90;;;;;;5030339;28;20448;-56
2024/01/22 05:35:34;;;;;;;3.80;3.50;;;4.70;99.90;;;;;;5019144;28;20472;-57
2024/01/22 05:38:01;;;;;;;3.73;2.87;;;4.70;99.90;;;;;;5016132;28;20533;-55
2024/01/22 05:40:27;;;;;;;3.10;2.70;;;4.80;99.90;;;;;;5006640;28;20483;-57
2024/01/22 05:42:54;;;;;;;3.00;2.70;;;4.80;99.90;;;;;;5018769;28;20448;-55
2024/01/22 05:45:20;;;;;;;3.47;2.97;;;4.90;93.90;;;;;;5012039;28;20447;-55
2024/01/22 05:47:47;;;;;;;3.43;3.13;;;5.00;27.10;;;;;;5016074;28;20477;-54
2024/01/22 05:50:15;;;;;;;9.23;3.90;;;5.10;31.60;;;;;;5011314;28;20487;-56
2024/01/22 05:52:41;;;;;;;3.63;2.83;;;5.10;34.10;;;;;;5010825;28;20876;-56
2024/01/22 05:55:09;;;;;;;2.93;2.63;;;5.20;41.70;;;;;;4995553;28;20468;-55
2024/01/22 05:57:35;;;;;;;3.10;2.70;;;5.20;43.70;;;;;;4997013;28;20448;-58
2024/01/22 06:00:09;;;;;;;3.37;3.07;;;5.30;47.20;;;;;;5000068;28;21044;-56
2024/01/22 06:02:35;;;;;;;3.33;3.00;;;5.40;49.60;;;;;;5000818;28;20457;-55
2024/01/22 06:05:02;;;;;;;4.93;3.00;;;5.40;52.40;;;;;;5006199;28;20456;-55
2024/01/22 06:07:30;;;;;;;6.50;3.40;;;5.40;50.90;;;;;;5001790;28;20467;-56
2024/01/22 06:09:56;;;;;;;4.33;2.53;;;5.60;57.70;;;;;;5009714;28;20471;-56
2024/01/22 06:12:23;;;;;;;2.93;2.50;;;5.70;63.70;;;;;;5009090;28;20460;-56
2024/01/22 06:14:50;;;;;;;3.60;2.87;;;5.80;66.80;;;;;;5009191;28;20444;-55
2024/01/22 06:17:16;;;;;;;2.93;2.70;;;5.90;70.80;;;;;;5003690;28;20472;-55
2024/01/22 06:19:43;;;;;;;4.73;2.50;;;6.00;73.60;;;;;;5005448;28;20467;-57
2024/01/22 06:22:10;;;;;;;4.33;2.20;;;6.10;76.90;;;;;;5000026;28;20546;-55
2024/01/22 06:24:38;;;;;;;3.43;2.77;;;6.30;83.80;;;;;;5007370;28;20467;-55
2024/01/22 06:27:05;;;;;;;3.13;2.40;;;6.40;87.60;;;;;;5018815;28;20462;-55
2024/01/22 06:29:35;;;;;;;4.97;2.80;;;6.50;90.30;;;;;;5014080;28;20522;-54
2024/01/22 06:32:01;;;;;;;3.73;2.20;;;6.60;95.50;;;;;;5013036;28;20432;-55
2024/01/22 06:34:28;;;;;;;5.80;2.50;;;6.60;95.50;;;;;;5005997;28;20440;-54
2024/01/22 06:36:54;;;;;;;2.33;2.10;;;6.60;97.20;;;;;;5013220;28;20463;-55
2024/01/22 06:39:21;;;;;;;6.40;2.63;;;6.70;99.90;;;;;;5010630;28;20478;-54
2024/01/22 06:41:49;;;;;;;4.13;2.50;;;6.70;99.90;;;;;;5003180;28;20488;-55
2024/01/22 06:44:16;;;;;;;3.53;2.70;;;6.80;99.90;;;;;;5008857;28;20449;-55
2024/01/22 06:46:42;;;;;;;3.00;2.13;;;7.00;99.90;;;;;;5013425;28;20449;-55
2024/01/22 06:49:09;;;;;;;2.00;1.90;;;7.10;99.90;;;;;;5005231;28;20447;-54
2024/01/22 06:51:36;;;;;;;3.77;1.90;;;7.10;99.90;;;;;;5008021;28;20514;-55
2024/01/22 06:54:02;;;;;;;2.60;1.97;;;7.20;99.90;;;;;;5008066;28;20519;-55
2024/01/22 06:56:29;;;;;;;1.83;1.73;;;7.30;99.90;;;;;;4999703;28;20460;-55
2024/01/22 06:58:57;;;;;;;1.80;1.70;;;7.30;99.90;;;;;;5008021;28;20533;-55
2024/01/22 07:01:27;;;;;;;5.57;2.20;;;7.20;99.90;;;;;;5008591;28;20486;-56
2024/01/22 07:03:53;;;;;;;5.03;1.70;;;7.30;99.90;;;;;;5014678;28;21297;-55
2024/01/22 07:06:20;;;;;;;3.73;2.40;;;7.40;99.90;;;;;;5010520;28;20947;-54
2024/01/22 07:08:47;;;;;;;3.00;2.03;;;7.50;99.90;;;;;;5005004;28;20448;-55
2024/01/22 07:11:13;;;;;;;2.80;2.40;;;7.50;99.90;;;;;;5010759;28;20506;-55
2024/01/22 07:13:40;;;;;;;2.13;1.90;;;7.50;99.90;;;;;;5003454;28;20821;-55
2024/01/22 07:16:08;;;;;;;2.83;2.10;;;7.50;99.90;;;;;;5017539;28;20464;-55
2024/01/22 07:18:35;;;;;;;2.50;2.30;;;7.60;99.90;;;;;;5019483;28;20530;-55
2024/01/22 07:21:02;;;;;;;2.07;1.97;;;7.50;99.90;;;;;;5015993;28;20491;-55
2024/01/22 07:23:29;;;;;;;2.97;2.57;;;7.50;99.90;;;;;;5015533;28;20459;-55
2024/01/22 07:25:55;;;;;;;3.53;1.73;;;7.60;99.90;;;;;;5010894;28;20468;-56
2024/01/22 07:28:22;;;;;;;6.10;2.40;;;7.50;99.90;;;;;;5016295;28;20873;-55
2024/01/22 07:30:49;;;;;;;2.23;1.90;;;7.50;99.90;;;;;;5013555;28;20550;-56
2024/01/22 07:33:16;;;;;;;2.13;1.60;;;7.50;99.90;;;;;;5019894;28;20451;-55
2024/01/22 07:35:43;;;;;;;2.00;1.80;;;7.40;99.90;;;;;;5009953;28;21036;-55
2024/01/22 07:38:10;;;;;;;4.33;1.90;;;7.40;99.90;;;;;;5016786;28;20447;-54
2024/01/22 07:40:36;;;;;;;2.40;1.93;;;7.40;99.90;;;;;;5016407;28;20891;-55
2024/01/22 07:43:03;;;;;;;2.30;2.10;;;7.40;99.90;;;;;;5004580;28;20498;-55
2024/01/22 07:45:30;;;;;;;2.50;2.13;;;7.40;99.90;;;;;;5030548;28;20454;-56
2024/01/22 07:47:56;;;;;;;2.10;2.00;;;7.40;99.90;;;;;;5014727;28;20531;-55
2024/01/22 07:50:24;;;;;;;2.93;2.60;;;7.40;99.90;;;;;;5019756;28;20557;-55
2024/01/22 07:52:51;;;;;;;2.17;2.00;;;7.40;99.90;;;;;;5014962;28;20496;-55
2024/01/22 07:55:18;;;;;;;2.60;2.40;;;7.40;99.90;;;;;;5001864;28;20522;-54
2024/01/22 07:57:45;;;;;;;2.23;1.70;;;7.40;99.90;;;;;;5017273;28;20446;-55
2024/01/22 08:00:13;;;;;;;2.07;1.70;;;7.30;99.90;;;;;;5014976;28;20523;-56
2024/01/22 08:02:40;;;;;;;2.03;1.83;;;6.90;58.20;;;;;;5016407;28;20479;-54
2024/01/22 08:05:07;;;;;;;2.13;1.93;;;6.70;21.50;;;;;;5019575;28;20448;-55
2024/01/22 08:07:35;;;;;;;3.07;2.27;;;6.40;99.90;;;;;;5006007;28;20448;-55
2024/01/22 08:10:01;;;;;;;2.70;2.33;;;6.20;99.90;;;;;;5007312;28;20575;-56
2024/01/22 08:12:28;;;;;;;1.70;1.60;;;6.10;99.90;;;;;;5012591;28;21036;-56
2024/01/22 08:14:54;;;;;;;4.13;2.07;;;5.90;99.90;;;;;;5015090;28;20533;-56
2024/01/22 08:17:21;;;;;;;4.90;2.27;;;5.90;99.90;;;;;;5009099;28;20467;-56
2024/01/22 08:19:47;;;;;;;3.70;2.00;;;5.80;96.60;;;;;;5009261;28;21009;-55
2024/01/22 08:22:14;;;;;;;2.57;2.03;;;5.70;80.60;;;;;;5001510;28;20746;-55
2024/01/22 08:24:42;;;;;;;2.13;2.03;;;5.70;71.50;;;;;;5007619;28;20463;-55
2024/01/22 08:27:09;;;;;;;2.53;1.97;;;5.60;59.20;;;;;;5007132;28;20870;-55
2024/01/22 08:29:35;;;;;;;2.30;2.00;;;5.50;51.50;;;;;;5007490;28;20479;-55
2024/01/22 08:32:02;;;;;;;2.27;1.90;;;5.60;44.60;;;;;;5010273;28;20455;-56
2024/01/22 08:34:29;;;;;;;3.03;1.77;;;5.50;36.90;;;;;;5011556;28;20528;-55
2024/01/22 08:36:55;;;;;;;2.53;2.30;;;5.50;28.90;;;;;;5014281;28;20468;-56
2024/01/22 08:39:22;;;;;;;4.30;2.37;;;5.40;24.20;;;;;;5015018;28;20480;-57
2024/01/22 08:41:50;;;;;;;2.07;1.97;;;5.50;20.20;;;;;;5022928;28;20479;-57
2024/01/22 08:44:16;;;;;;;2.50;2.30;;;5.50;92.00;;;;;;5031643;28;20459;-56
2024/01/22 08:46:43;;;;;;;3.00;2.20;;;5.40;99.90;;;;;;5031793;28;20479;-55
2024/01/22 08:49:09;;;;;;;2.30;2.10;;;5.50;99.90;;;;;;5024011;28;20497;-55
2024/01/22 08:51:36;;;;;;;2.40;2.00;;;5.50;99.90;;;;;;5018882;28;20456;-55
2024/01/22 08:54:03;;;;;;;2.53;2.33;;;5.50;99.90;;;;;;5012717;28;20460;-55
2024/01/22 08:56:29;;;;;;;4.43;2.20;;;5.50;99.90;;;;;;5006251;28;20467;-56
2024/01/22 08:58:58;;;;;;;2.47;1.77;;;5.50;99.90;;;;;;5005939;28;21143;-56
2024/01/22 09:01:25;;;;;;;3.63;2.50;;;5.50;99.90;;;;;;5007775;28;20479;-55
2024/01/22 09:03:51;;;;;;;5.33;1.83;;;5.50;99.90;;;;;;5006211;28;20485;-61
2024/01/22 09:06:18;;;;;;;2.57;2.37;;;5.50;99.90;;;;;;5007365;28;20467;-56
2024/01/22 09:08:44;;;;;;;3.07;2.20;;;5.50;99.90;;;;;;5009740;28;21028;-56
2024/01/22 09:11:11;;;;;;;2.27;2.13;;;5.50;99.90;;;;;;5009139;28;20484;-56
2024/01/22 09:13:38;;;;;;;2.00;1.90;;;5.60;99.90;;;;;;5008541;28;20517;-56
2024/01/22 09:16:08;;;;;;;2.10;1.67;;;5.50;99.90;;;;;;5012543;28;20455;-56
2024/01/22 09:18:35;;;;;;;5.90;2.60;;;5.60;99.90;;;;;;5012802;28;20452;-57
2024/01/22 09:21:03;;;;;;;2.23;2.13;;;5.60;99.90;;;;;;5010487;28;21018;-54
2024/01/22 09:23:30;;;;;;;1.90;1.80;;;5.70;99.90;;;;;;5013660;28;21001;-55
2024/01/22 09:25:56;;;;;;;2.60;1.83;;;5.70;99.90;;;;;;5014010;28;20911;-56
2024/01/22 09:28:23;;;;;;;1.93;1.80;;;5.70;99.90;;;;;;5013288;28;20464;-57
2024/01/22 09:30:50;;;;;;;1.90;1.80;;;5.80;99.90;;;;;;5010669;28;20871;-55
2024/01/22 09:33:18;;;;;;;2.07;1.87;;;5.80;99.90;;;;;;5020114;28;20440;-55
2024/01/22 09:35:44;;;;;;;1.70;1.63;;;5.90;99.90;;;;;;5010867;28;20521;-55
2024/01/22 09:38:11;;;;;;;3.10;2.00;;;5.90;99.90;;;;;;5017946;28;20514;-55
2024/01/22 09:40:38;;;;;;;2.90;2.33;;;5.90;99.90;;;;;;5019112;28;20483;-56
2024/01/22 09:43:06;;;;;;;4.00;2.20;;;5.90;99.90;;;;;;5021655;28;20483;-57
2024/01/22 09:45:33;;;;;;;1.90;1.80;;;6.00;86.60;;;;;;5023424;28;20495;-55
2024/01/22 09:48:00;;;;;;;8.83;2.20;;;6.00;22.20;;;;;;5021731;28;20864;-55
2024/01/22 09:50:29;;;;;;;4.80;2.17;;;6.00;26.80;;;;;;5017772;28;20487;-57
2024/01/22 09:53:00;;;;;;;2.17;2.07;;;6.10;31.10;;;;;;5016975;28;20453;-55
2024/01/22 09:55:28;;;;;;;2.00;1.90;;;6.20;49.80;;;;;;5018340;28;20463;-55
2024/01/22 09:57:58;;;;;;;2.23;1.73;;;6.30;56.40;;;;;;5020537;28;20482;-55
2024/01/22 10:00:26;;;;;;;2.17;2.00;;;6.40;58.90;;;;;;5014138;28;20506;-56
2024/01/22 10:02:53;;;;;;;2.10;1.83;;;6.50;76.60;;;;;;4999063;28;20579;-59
2024/01/22 10:05:20;;;;;;;2.53;2.33;;;6.60;91.60;;;;;;5003964;28;20460;-56
2024/01/22 10:07:48;;;;;;;2.20;2.10;;;6.70;99.90;;;;;;5011619;28;20787;-60
2024/01/22 10:10:15;;;;;;;2.70;2.47;;;6.70;99.30;;;;;;5010987;28;20580;-59
2024/01/22 10:12:59;;;;;;;2.97;1.70;;;6.80;99.90;;;;;;5018370;28;20499;-56
2024/01/22 10:15:26;;;;;;;3.53;2.00;;;6.80;99.90;;;;;;5007020;28;20437;-55
2024/01/22 10:17:53;;;;;;;1.87;1.77;;;6.90;99.90;;;;;;5014067;28;20488;-56
2024/01/22 10:20:23;;;;;;;1.73;1.63;;;7.00;99.90;;;;;;5024877;23;20537;-52
2024/01/22 10:23:00;;;;;;;1.77;1.67;;;7.00;99.90;;;;;;5016266;28;20498;-51
2024/01/22 10:25:27;;;;;;;2.13;1.73;;;7.10;99.90;;;;;;5017142;28;20529;-52
2024/01/22 10:28:08;;;;;;;1.43;1.33;;;7.20;99.90;;;;;;5017854;28;20468;-52
2024/01/22 10:30:34;;;;;;;2.83;1.60;;;7.20;99.90;;;;;;5006374;28;21365;-52
2024/01/22 10:33:13;;;;;;;1.90;1.80;;;7.40;99.90;;;;;;5002362;28;20491;-52
2024/01/22 10:35:39;;;;;;;2.83;2.17;;;7.40;99.90;;;;;;5002846;28;20984;-54
2024/01/22 10:38:09;;;;;;;3.97;2.47;;;7.50;99.90;;;;;;5007692;28;20463;-52
2024/01/22 10:40:36;;;;;;;3.40;2.77;;;7.60;99.90;;;;;;5002834;28;20529;-53
2024/01/22 10:43:22;;;;;;;2.33;2.13;;;7.60;99.90;;;;;;5003665;28;21199;-52
2024/01/22 10:45:49;;;;;;;2.97;2.00;;;7.60;99.90;;;;;;5003073;28;20459;-52
2024/01/22 10:48:17;;;;;;;2.00;1.73;;;7.70;99.90;;;;;;5003708;28;20569;-52
2024/01/22 10:50:45;;;;;;;1.93;1.83;;;7.70;99.90;;;;;;5002846;28;20969;-52
2024/01/22 10:53:13;;;;;;;1.57;1.47;;;7.80;99.90;;;;;;5004427;28;20977;-53
2024/01/22 10:55:39;;;;;;;2.70;1.80;;;7.90;99.90;;;;;;5004227;28;21079;-52
2024/01/22 10:58:14;;;;;;;1.77;1.67;;;8.10;99.90;;;;;;5007345;28;20463;-52
2024/01/22 11:00:44;;;;;;;1.83;1.73;;;8.10;99.90;;;;;;5009090;28;20462;-52
2024/01/22 11:03:13;;;;;;;1.80;1.70;;;8.20;99.90;;;;;;5008141;28;20506;-53
2024/01/22 11:05:45;;;;;;;3.93;1.87;;;8.30;96.80;;;;;;5010120;28;20537;-52
2024/01/22 11:08:17;;;;;;;4.10;1.50;;;8.30;80.10;;;;;;5003690;28;20470;-52
2024/01/22 11:10:44;;;;;;;2.17;1.70;;;8.40;24.40;;;;;;5012084;28;20487;-53
2024/01/22 11:13:13;;;;;;;1.73;1.63;;;8.40;25.90;;;;;;5007529;28;20460;-53
2024/01/22 11:15:40;;;;;;;2.30;1.70;;;8.50;32.10;;;;;;5010271;28;20521;-53
2024/01/22 11:18:08;;;;;;;3.00;2.00;;;8.50;29.30;;;;;;5006694;28;20455;-53
2024/01/22 11:20:37;;;;;;;1.67;1.53;;;8.50;28.40;;;;;;5006138;28;20561;-52
2024/01/22 11:23:08;;;;;;;2.60;1.80;;;8.50;30.40;;;;;;5011728;28;20483;-52
2024/01/22 11:25:36;;;;;;;1.60;1.30;;;8.60;33.90;;;;;;5007416;28;20532;-52
2024/01/22 11:28:05;;;;;;;3.33;1.97;;;8.60;33.90;;;;;;5007213;28;20463;-53
2024/01/22 11:30:36;;;;;;;2.90;2.20;;;8.60;31.40;;;;;;5011579;28;20484;-53
2024/01/22 11:33:03;;;;;;;4.03;2.10;;;8.60;34.70;;;;;;5010604;28;20906;-52
2024/01/22 11:35:34;;;;;;;5.43;2.33;;;8.70;39.10;;;;;;5009245;28;20513;-52
2024/01/22 11:38:02;;;;;;;2.40;2.13;;;8.70;40.60;;;;;;5011045;28;20482;-53
2024/01/22 11:40:48;;;;;;;1.80;1.70;;;8.80;41.40;;;;;;5010405;28;20477;-52
2024/01/22 11:43:15;;;;;;;2.70;1.70;;;8.80;42.30;;;;;;5007169;28;20562;-52
2024/01/22 11:45:42;;;;;;;2.10;1.50;;;8.90;44.30;;;;;;5009523;28;20972;-52
2024/01/22 11:48:16;;;;;;;2.03;1.83;;;8.90;46.60;;;;;;5006289;28;20473;-52
2024/01/22 11:50:42;;;;;;;1.33;1.23;;;9.00;53.70;;;;;;5006289;28;20530;-52
2024/01/22 11:53:09;;;;;;;2.17;1.60;;;9.10;54.70;;;;;;5008716;28;20519;-52
2024/01/22 11:55:36;;;;;;;1.53;1.43;;;9.10;53.50;;;;;;5009124;28;20464;-52
2024/01/22 11:58:09;;;;;;;1.80;1.67;;;9.20;55.40;;;;;;5008169;28;20455;-52
2024/01/22 12:00:35;;;;;;;1.43;1.33;;;9.20;56.90;;;;;;5004606;28;20519;-52
2024/01/22 12:03:02;;;;;;;1.50;1.40;;;9.30;60.50;;;;;;5003598;28;20542;-52
2024/01/22 12:05:29;;;;;;;1.73;1.13;;;9.30;59.80;;;;;;5010027;28;20513;-52
2024/01/22 12:07:55;;;;;;;1.60;1.50;;;9.30;60.60;;;;;;5009753;28;20973;-51
2024/01/22 12:10:23;;;;;;;2.20;1.30;;;9.20;59.50;;;;;;5006904;28;20911;-52
2024/01/22 12:12:55;;;;;;;1.33;1.23;;;9.20;59.20;;;;;;5003789;28;20976;-52
2024/01/22 12:15:24;;;;;;;3.57;2.30;;;9.20;56.50;;;;;;5000584;28;20467;-52
2024/01/22 12:17:51;;;;;;;2.70;1.57;;;9.10;52.90;;;;;;5008496;28;20452;-52
2024/01/22 12:20:19;;;;;;;1.30;1.20;;;9.10;53.60;;;;;;5010017;28;20533;-52
2024/01/22 12:22:45;;;;;;;2.67;1.70;;;9.20;55.90;;;;;;5007249;28;20517;-52
2024/01/22 12:25:12;;;;;;;1.83;1.30;;;9.20;57.20;;;;;;5009306;28;21028;-52
2024/01/22 12:27:39;;;;;;;2.03;1.27;;;9.20;54.60;;;;;;5007815;28;20594;-52
2024/01/22 12:30:09;;;;;;;1.50;1.40;;;9.30;59.90;;;;;;5007761;28;20503;-52
2024/01/22 12:32:38;;;;;;;2.97;1.30;;;9.30;59.20;;;;;;5008720;28;20889;-52
2024/01/22 12:35:06;;;;;;;1.27;1.17;;;9.40;60.70;;;;;;5006931;28;20547;-52
2024/01/22 12:37:35;;;;;;;1.40;1.30;;;9.50;61.50;;;;;;5009344;28;20550;-52
2024/01/22 12:40:10;;;;;;;1.30;1.30;;;9.50;61.30;;;;;;5008933;28;20511;-51
2024/01/22 12:42:37;;;;;;;2.63;1.40;;;9.50;62.90;;;;;;5005795;28;20534;-52
2024/01/22 12:45:04;;;;;;;1.50;1.50;;;9.50;63.80;;;;;;5007912;28;20471;-52
2024/01/22 12:47:33;;;;;;;1.70;1.60;;;9.60;64.90;;;;;;5006650;28;20530;-52
2024/01/22 12:50:01;;;;;;;1.17;1.17;;;9.60;64.70;;;;;;5008235;28;20844;-51
2024/01/22 12:52:27;;;;;;;1.40;1.30;;;9.60;65.60;;;;;;5006681;28;20448;-52
2024/01/22 12:54:54;;;;;;;1.20;1.10;;;9.60;68.90;;;;;;5006526;28;20468;-52
2024/01/22 12:57:21;;;;;;;1.63;1.53;;;9.60;69.60;;;;;;5006776;28;20459;-52
2024/01/22 12:59:47;;;;;;;1.10;1.10;;;9.60;70.60;;;;;;5005127;28;20998;-53